sensor_id;sensor_type;location;lat;lon;timestamp;P1;durP1;ratioP1;P2;durP2;ratioP2
33162;SDS011;29282;45.656;11.302;2023-06-05T00:00:59;5.45;;;3.90;;
33162;SDS011;29282;45.656;11.302;2023-06-05T00:03:25;5.63;;;4.07;;
33162;SDS011;29282;45.656;11.302;2023-06-05T00:05:52;4.55;;;3.90;;
33162;SDS011;29282;45.656;11.302;2023-06-05T00:08:17;4.38;;;3.97;;
33162;SDS011;29282;45.656;11.302;2023-06-05T00:10:43;6.45;;;3.75;;
33162;SDS011;29282;45.656;11.302;2023-06-05T00:13:08;6.63;;;3.85;;
33162;SDS011;29282;45.656;11.302;2023-06-05T00:15:33;5.50;;;4.15;;
33162;SDS011;29282;45.656;11.302;2023-06-05T00:18:01;6.30;;;4.18;;
33162;SDS011;29282;45.656;11.302;2023-06-05T00:20:27;4.68;;;4.15;;
33162;SDS011;29282;45.656;11.302;2023-06-05T00:22:53;3.80;;;3.50;;
33162;SDS011;29282;45.656;11.302;2023-06-05T00:25:20;5.68;;;3.85;;
33162;SDS011;29282;45.656;11.302;2023-06-05T00:27:45;4.68;;;4.20;;
33162;SDS011;29282;45.656;11.302;2023-06-05T00:30:11;4.78;;;4.28;;
33162;SDS011;29282;45.656;11.302;2023-06-05T00:32:37;4.28;;;3.88;;
33162;SDS011;29282;45.656;11.302;2023-06-05T00:35:02;6.40;;;4.18;;
33162;SDS011;29282;45.656;11.302;2023-06-05T00:37:28;6.40;;;3.80;;
33162;SDS011;29282;45.656;11.302;2023-06-05T00:39:53;5.45;;;4.07;;
33162;SDS011;29282;45.656;11.302;2023-06-05T00:42:19;4.50;;;3.92;;
33162;SDS011;29282;45.656;11.302;2023-06-05T00:44:44;4.20;;;3.72;;
33162;SDS011;29282;45.656;11.302;2023-06-05T00:47:11;3.60;;;3.30;;
33162;SDS011;29282;45.656;11.302;2023-06-05T00:49:39;5.63;;;3.90;;
33162;SDS011;29282;45.656;11.302;2023-06-05T00:52:05;4.00;;;3.60;;
33162;SDS011;29282;45.656;11.302;2023-06-05T00:54:31;4.13;;;3.72;;
33162;SDS011;29282;45.656;11.302;2023-06-05T00:57:00;4.07;;;3.63;;
33162;SDS011;29282;45.656;11.302;2023-06-05T00:59:27;3.90;;;3.50;;
33162;SDS011;29282;45.656;11.302;2023-06-05T01:01:54;4.30;;;3.90;;
33162;SDS011;29282;45.656;11.302;2023-06-05T01:04:39;4.15;;;3.75;;
33162;SDS011;29282;45.656;11.302;2023-06-05T01:07:09;4.13;;;3.72;;
33162;SDS011;29282;45.656;11.302;2023-06-05T01:09:36;4.05;;;3.60;;
33162;SDS011;29282;45.656;11.302;2023-06-05T01:14:28;3.63;;;3.33;;
33162;SDS011;29282;45.656;11.302;2023-06-05T01:16:56;6.50;;;3.85;;
33162;SDS011;29282;45.656;11.302;2023-06-05T01:19:25;4.07;;;3.58;;
33162;SDS011;29282;45.656;11.302;2023-06-05T01:21:54;4.80;;;4.00;;
33162;SDS011;29282;45.656;11.302;2023-06-05T01:24:23;3.75;;;3.35;;
33162;SDS011;29282;45.656;11.302;2023-06-05T01:29:38;4.88;;;4.00;;
33162;SDS011;29282;45.656;11.302;2023-06-05T01:32:19;4.68;;;3.53;;
33162;SDS011;29282;45.656;11.302;2023-06-05T01:35:12;3.53;;;3.22;;
33162;SDS011;29282;45.656;11.302;2023-06-05T01:37:42;4.32;;;3.60;;
33162;SDS011;29282;45.656;11.302;2023-06-05T01:40:14;4.32;;;3.85;;
33162;SDS011;29282;45.656;11.302;2023-06-05T01:42:42;4.03;;;3.67;;
33162;SDS011;29282;45.656;11.302;2023-06-05T01:45:08;4.63;;;3.50;;
33162;SDS011;29282;45.656;11.302;2023-06-05T01:47:36;4.35;;;3.70;;
33162;SDS011;29282;45.656;11.302;2023-06-05T01:50:03;3.92;;;3.53;;
33162;SDS011;29282;45.656;11.302;2023-06-05T01:52:32;4.53;;;3.85;;
33162;SDS011;29282;45.656;11.302;2023-06-05T01:54:59;4.63;;;3.55;;
33162;SDS011;29282;45.656;11.302;2023-06-05T01:57:28;5.10;;;3.80;;
33162;SDS011;29282;45.656;11.302;2023-06-05T01:59:54;5.03;;;3.38;;
33162;SDS011;29282;45.656;11.302;2023-06-05T02:02:20;4.47;;;3.38;;
33162;SDS011;29282;45.656;11.302;2023-06-05T02:04:47;5.05;;;3.75;;
33162;SDS011;29282;45.656;11.302;2023-06-05T02:07:13;4.35;;;3.60;;
33162;SDS011;29282;45.656;11.302;2023-06-05T02:09:40;4.50;;;3.53;;
33162;SDS011;29282;45.656;11.302;2023-06-05T02:12:06;3.85;;;3.55;;
33162;SDS011;29282;45.656;11.302;2023-06-05T02:14:32;3.92;;;3.55;;
33162;SDS011;29282;45.656;11.302;2023-06-05T02:17:00;4.97;;;3.90;;
33162;SDS011;29282;45.656;11.302;2023-06-05T02:19:27;3.60;;;3.22;;
33162;SDS011;29282;45.656;11.302;2023-06-05T02:21:52;3.60;;;3.30;;
33162;SDS011;29282;45.656;11.302;2023-06-05T02:24:18;4.30;;;3.45;;
33162;SDS011;29282;45.656;11.302;2023-06-05T02:26:43;4.05;;;3.38;;
33162;SDS011;29282;45.656;11.302;2023-06-05T02:29:09;3.67;;;3.38;;
33162;SDS011;29282;45.656;11.302;2023-06-05T02:31:35;4.47;;;3.95;;
33162;SDS011;29282;45.656;11.302;2023-06-05T02:34:01;4.00;;;3.60;;
33162;SDS011;29282;45.656;11.302;2023-06-05T02:36:27;3.75;;;3.38;;
33162;SDS011;29282;45.656;11.302;2023-06-05T02:38:57;6.38;;;3.20;;
33162;SDS011;29282;45.656;11.302;2023-06-05T02:41:27;3.67;;;3.38;;
33162;SDS011;29282;45.656;11.302;2023-06-05T02:43:53;3.60;;;3.30;;
33162;SDS011;29282;45.656;11.302;2023-06-05T02:46:20;3.78;;;3.30;;
33162;SDS011;29282;45.656;11.302;2023-06-05T02:48:46;3.53;;;3.22;;
33162;SDS011;29282;45.656;11.302;2023-06-05T02:51:12;3.45;;;3.15;;
33162;SDS011;29282;45.656;11.302;2023-06-05T02:53:37;3.70;;;3.38;;
33162;SDS011;29282;45.656;11.302;2023-06-05T02:56:03;4.07;;;3.65;;
33162;SDS011;29282;45.656;11.302;2023-06-05T02:58:30;3.63;;;3.33;;
33162;SDS011;29282;45.656;11.302;2023-06-05T03:00:58;3.92;;;3.38;;
33162;SDS011;29282;45.656;11.302;2023-06-05T03:03:28;3.83;;;3.40;;
33162;SDS011;29282;45.656;11.302;2023-06-05T03:05:55;4.07;;;3.35;;
33162;SDS011;29282;45.656;11.302;2023-06-05T03:08:35;3.92;;;3.53;;
33162;SDS011;29282;45.656;11.302;2023-06-05T03:11:02;3.25;;;2.90;;
33162;SDS011;29282;45.656;11.302;2023-06-05T03:13:29;3.67;;;3.30;;
33162;SDS011;29282;45.656;11.302;2023-06-05T03:15:55;3.30;;;3.00;;
33162;SDS011;29282;45.656;11.302;2023-06-05T03:18:26;4.30;;;3.33;;
33162;SDS011;29282;45.656;11.302;2023-06-05T03:20:52;4.38;;;3.17;;
33162;SDS011;29282;45.656;11.302;2023-06-05T03:23:27;3.72;;;3.33;;
33162;SDS011;29282;45.656;11.302;2023-06-05T03:25:53;3.28;;;2.97;;
33162;SDS011;29282;45.656;11.302;2023-06-05T03:28:20;3.40;;;3.10;;
33162;SDS011;29282;45.656;11.302;2023-06-05T03:30:47;3.90;;;3.13;;
33162;SDS011;29282;45.656;11.302;2023-06-05T03:33:13;3.47;;;3.17;;
33162;SDS011;29282;45.656;11.302;2023-06-05T03:35:40;3.60;;;3.10;;
33162;SDS011;29282;45.656;11.302;2023-06-05T03:38:07;3.35;;;3.05;;
33162;SDS011;29282;45.656;11.302;2023-06-05T03:40:33;3.78;;;3.38;;
33162;SDS011;29282;45.656;11.302;2023-06-05T03:42:59;3.35;;;3.05;;
33162;SDS011;29282;45.656;11.302;2023-06-05T03:45:24;3.70;;;3.40;;
33162;SDS011;29282;45.656;11.302;2023-06-05T03:47:51;3.80;;;3.05;;
33162;SDS011;29282;45.656;11.302;2023-06-05T03:50:19;3.20;;;2.88;;
33162;SDS011;29282;45.656;11.302;2023-06-05T03:52:45;3.03;;;2.83;;
33162;SDS011;29282;45.656;11.302;2023-06-05T03:57:52;4.20;;;3.58;;
33162;SDS011;29282;45.656;11.302;2023-06-05T04:00:18;2.90;;;2.70;;
33162;SDS011;29282;45.656;11.302;2023-06-05T04:02:44;3.38;;;3.08;;
33162;SDS011;29282;45.656;11.302;2023-06-05T04:05:09;3.75;;;2.90;;
33162;SDS011;29282;45.656;11.302;2023-06-05T04:07:36;3.60;;;2.90;;
33162;SDS011;29282;45.656;11.302;2023-06-05T04:10:02;4.00;;;3.10;;
33162;SDS011;29282;45.656;11.302;2023-06-05T04:12:28;3.15;;;2.80;;
33162;SDS011;29282;45.656;11.302;2023-06-05T04:14:54;3.10;;;2.80;;
33162;SDS011;29282;45.656;11.302;2023-06-05T04:17:19;3.17;;;2.90;;
33162;SDS011;29282;45.656;11.302;2023-06-05T04:19:45;3.22;;;2.92;;
33162;SDS011;29282;45.656;11.302;2023-06-05T04:22:10;3.83;;;3.42;;
33162;SDS011;29282;45.656;11.302;2023-06-05T04:24:36;4.03;;;2.90;;
33162;SDS011;29282;45.656;11.302;2023-06-05T04:27:03;3.15;;;2.83;;
33162;SDS011;29282;45.656;11.302;2023-06-05T04:29:29;4.63;;;2.97;;
33162;SDS011;29282;45.656;11.302;2023-06-05T04:31:57;3.38;;;3.08;;
33162;SDS011;29282;45.656;11.302;2023-06-05T04:34:22;3.13;;;2.50;;
33162;SDS011;29282;45.656;11.302;2023-06-05T04:36:49;2.88;;;2.63;;
33162;SDS011;29282;45.656;11.302;2023-06-05T04:39:15;3.92;;;2.90;;
33162;SDS011;29282;45.656;11.302;2023-06-05T04:41:44;3.17;;;2.60;;
33162;SDS011;29282;45.656;11.302;2023-06-05T04:44:14;3.28;;;2.40;;
33162;SDS011;29282;45.656;11.302;2023-06-05T04:46:44;3.38;;;2.60;;
33162;SDS011;29282;45.656;11.302;2023-06-05T04:49:11;2.50;;;2.30;;
33162;SDS011;29282;45.656;11.302;2023-06-05T04:51:38;4.47;;;3.00;;
33162;SDS011;29282;45.656;11.302;2023-06-05T04:54:04;2.22;;;2.03;;
33162;SDS011;29282;45.656;11.302;2023-06-05T04:56:30;2.53;;;2.20;;
33162;SDS011;29282;45.656;11.302;2023-06-05T04:58:57;3.78;;;2.50;;
33162;SDS011;29282;45.656;11.302;2023-06-05T05:01:27;3.17;;;2.38;;
33162;SDS011;29282;45.656;11.302;2023-06-05T05:03:53;3.88;;;2.35;;
33162;SDS011;29282;45.656;11.302;2023-06-05T05:06:20;4.22;;;2.35;;
33162;SDS011;29282;45.656;11.302;2023-06-05T05:08:46;3.35;;;2.10;;
33162;SDS011;29282;45.656;11.302;2023-06-05T05:11:16;2.65;;;2.22;;
33162;SDS011;29282;45.656;11.302;2023-06-05T05:13:42;3.22;;;2.28;;
33162;SDS011;29282;45.656;11.302;2023-06-05T05:16:08;2.20;;;2.00;;
33162;SDS011;29282;45.656;11.302;2023-06-05T05:18:35;2.10;;;1.90;;
33162;SDS011;29282;45.656;11.302;2023-06-05T05:21:03;2.95;;;1.85;;
33162;SDS011;29282;45.656;11.302;2023-06-05T05:23:30;2.03;;;1.83;;
33162;SDS011;29282;45.656;11.302;2023-06-05T05:25:56;2.30;;;2.10;;
33162;SDS011;29282;45.656;11.302;2023-06-05T05:28:21;2.13;;;1.92;;
33162;SDS011;29282;45.656;11.302;2023-06-05T05:30:51;3.53;;;1.95;;
33162;SDS011;29282;45.656;11.302;2023-06-05T05:33:17;1.83;;;1.70;;
33162;SDS011;29282;45.656;11.302;2023-06-05T05:35:42;4.32;;;1.83;;
33162;SDS011;29282;45.656;11.302;2023-06-05T05:38:09;2.88;;;2.17;;
33162;SDS011;29282;45.656;11.302;2023-06-05T05:40:34;3.88;;;2.20;;
33162;SDS011;29282;45.656;11.302;2023-06-05T05:43:00;4.22;;;2.00;;
33162;SDS011;29282;45.656;11.302;2023-06-05T05:45:25;2.10;;;1.80;;
33162;SDS011;29282;45.656;11.302;2023-06-05T05:47:51;2.10;;;1.85;;
33162;SDS011;29282;45.656;11.302;2023-06-05T05:50:16;3.63;;;2.03;;
33162;SDS011;29282;45.656;11.302;2023-06-05T05:52:42;2.05;;;1.70;;
33162;SDS011;29282;45.656;11.302;2023-06-05T05:55:12;2.05;;;1.80;;
33162;SDS011;29282;45.656;11.302;2023-06-05T05:57:38;3.88;;;1.60;;
33162;SDS011;29282;45.656;11.302;2023-06-05T06:00:03;2.17;;;1.92;;
33162;SDS011;29282;45.656;11.302;2023-06-05T06:02:37;4.73;;;1.70;;
33162;SDS011;29282;45.656;11.302;2023-06-05T06:05:05;2.67;;;1.70;;
33162;SDS011;29282;45.656;11.302;2023-06-05T06:07:31;3.08;;;1.60;;
33162;SDS011;29282;45.656;11.302;2023-06-05T06:09:57;4.97;;;1.80;;
33162;SDS011;29282;45.656;11.302;2023-06-05T06:12:23;2.45;;;1.90;;
33162;SDS011;29282;45.656;11.302;2023-06-05T06:14:49;4.47;;;1.60;;
33162;SDS011;29282;45.656;11.302;2023-06-05T06:17:14;2.53;;;1.90;;
33162;SDS011;29282;45.656;11.302;2023-06-05T06:19:40;3.15;;;1.60;;
33162;SDS011;29282;45.656;11.302;2023-06-05T06:22:07;1.60;;;1.50;;
33162;SDS011;29282;45.656;11.302;2023-06-05T06:24:40;4.28;;;1.90;;
33162;SDS011;29282;45.656;11.302;2023-06-05T06:27:06;3.22;;;1.70;;
33162;SDS011;29282;45.656;11.302;2023-06-05T06:29:47;2.70;;;1.73;;
33162;SDS011;29282;45.656;11.302;2023-06-05T06:32:17;3.58;;;1.80;;
33162;SDS011;29282;45.656;11.302;2023-06-05T06:34:43;3.92;;;2.13;;
33162;SDS011;29282;45.656;11.302;2023-06-05T06:37:10;3.70;;;1.80;;
33162;SDS011;29282;45.656;11.302;2023-06-05T06:39:38;3.38;;;1.75;;
33162;SDS011;29282;45.656;11.302;2023-06-05T06:42:08;2.67;;;1.80;;
33162;SDS011;29282;45.656;11.302;2023-06-05T06:44:35;3.38;;;1.90;;
33162;SDS011;29282;45.656;11.302;2023-06-05T06:47:01;2.25;;;1.70;;
33162;SDS011;29282;45.656;11.302;2023-06-05T06:49:27;3.53;;;1.70;;
33162;SDS011;29282;45.656;11.302;2023-06-05T06:51:53;5.78;;;1.80;;
33162;SDS011;29282;45.656;11.302;2023-06-05T06:54:18;6.55;;;2.00;;
33162;SDS011;29282;45.656;11.302;2023-06-05T06:56:47;3.05;;;1.95;;
33162;SDS011;29282;45.656;11.302;2023-06-05T06:59:14;2.78;;;1.83;;
33162;SDS011;29282;45.656;11.302;2023-06-05T07:01:44;10.27;;;2.20;;
33162;SDS011;29282;45.656;11.302;2023-06-05T07:04:16;2.10;;;1.90;;
33162;SDS011;29282;45.656;11.302;2023-06-05T07:06:45;3.60;;;1.70;;
33162;SDS011;29282;45.656;11.302;2023-06-05T07:09:11;3.15;;;2.08;;
33162;SDS011;29282;45.656;11.302;2023-06-05T07:11:37;4.85;;;2.00;;
33162;SDS011;29282;45.656;11.302;2023-06-05T07:14:03;4.97;;;2.17;;
33162;SDS011;29282;45.656;11.302;2023-06-05T07:16:28;5.10;;;1.90;;
33162;SDS011;29282;45.656;11.302;2023-06-05T07:18:57;4.43;;;1.90;;
33162;SDS011;29282;45.656;11.302;2023-06-05T07:21:22;2.53;;;1.70;;
33162;SDS011;29282;45.656;11.302;2023-06-05T07:23:48;10.05;;;1.90;;
33162;SDS011;29282;45.656;11.302;2023-06-05T07:26:17;2.42;;;2.03;;
33162;SDS011;29282;45.656;11.302;2023-06-05T07:28:43;4.40;;;1.92;;
33162;SDS011;29282;45.656;11.302;2023-06-05T07:31:09;2.03;;;1.80;;
33162;SDS011;29282;45.656;11.302;2023-06-05T07:33:35;2.60;;;1.90;;
33162;SDS011;29282;45.656;11.302;2023-06-05T07:36:01;3.40;;;1.88;;
33162;SDS011;29282;45.656;11.302;2023-06-05T07:38:27;2.08;;;1.88;;
33162;SDS011;29282;45.656;11.302;2023-06-05T07:40:54;2.28;;;1.70;;
33162;SDS011;29282;45.656;11.302;2023-06-05T07:43:23;2.33;;;1.90;;
33162;SDS011;29282;45.656;11.302;2023-06-05T07:45:49;2.00;;;1.90;;
33162;SDS011;29282;45.656;11.302;2023-06-05T07:48:14;3.28;;;1.63;;
33162;SDS011;29282;45.656;11.302;2023-06-05T07:50:40;2.75;;;1.60;;
33162;SDS011;29282;45.656;11.302;2023-06-05T07:53:06;1.70;;;1.60;;
33162;SDS011;29282;45.656;11.302;2023-06-05T07:55:31;3.25;;;1.80;;
33162;SDS011;29282;45.656;11.302;2023-06-05T07:57:57;2.08;;;1.88;;
33162;SDS011;29282;45.656;11.302;2023-06-05T08:00:25;1.77;;;1.63;;
33162;SDS011;29282;45.656;11.302;2023-06-05T08:02:51;5.22;;;2.08;;
33162;SDS011;29282;45.656;11.302;2023-06-05T08:05:18;4.18;;;2.03;;
33162;SDS011;29282;45.656;11.302;2023-06-05T08:07:44;2.35;;;1.95;;
33162;SDS011;29282;45.656;11.302;2023-06-05T08:10:10;2.42;;;1.70;;
33162;SDS011;29282;45.656;11.302;2023-06-05T08:12:36;1.77;;;1.52;;
33162;SDS011;29282;45.656;11.302;2023-06-05T08:15:02;4.32;;;1.60;;
33162;SDS011;29282;45.656;11.302;2023-06-05T08:17:28;1.80;;;1.70;;
33162;SDS011;29282;45.656;11.302;2023-06-05T08:19:57;1.58;;;1.48;;
33162;SDS011;29282;45.656;11.302;2023-06-05T08:22:22;2.10;;;1.55;;
33162;SDS011;29282;45.656;11.302;2023-06-05T08:24:48;4.07;;;1.98;;
33162;SDS011;29282;45.656;11.302;2023-06-05T08:27:15;1.73;;;1.48;;
33162;SDS011;29282;45.656;11.302;2023-06-05T08:29:43;2.97;;;1.95;;
33162;SDS011;29282;45.656;11.302;2023-06-05T08:32:09;1.90;;;1.70;;
33162;SDS011;29282;45.656;11.302;2023-06-05T08:34:35;1.77;;;1.58;;
33162;SDS011;29282;45.656;11.302;2023-06-05T08:37:00;1.85;;;1.70;;
33162;SDS011;29282;45.656;11.302;2023-06-05T08:39:26;1.88;;;1.70;;
33162;SDS011;29282;45.656;11.302;2023-06-05T08:41:57;1.98;;;1.70;;
33162;SDS011;29282;45.656;11.302;2023-06-05T08:44:25;1.80;;;1.70;;
33162;SDS011;29282;45.656;11.302;2023-06-05T08:47:01;2.05;;;1.85;;
33162;SDS011;29282;45.656;11.302;2023-06-05T08:49:28;1.70;;;1.40;;
33162;SDS011;29282;45.656;11.302;2023-06-05T08:52:02;2.22;;;1.63;;
33162;SDS011;29282;45.656;11.302;2023-06-05T08:54:36;2.88;;;1.70;;
33162;SDS011;29282;45.656;11.302;2023-06-05T08:57:07;2.42;;;1.73;;
33162;SDS011;29282;45.656;11.302;2023-06-05T08:59:33;2.50;;;1.60;;
33162;SDS011;29282;45.656;11.302;2023-06-05T09:01:59;1.50;;;1.38;;
33162;SDS011;29282;45.656;11.302;2023-06-05T09:04:25;1.67;;;1.45;;
33162;SDS011;29282;45.656;11.302;2023-06-05T09:06:55;2.35;;;1.50;;
33162;SDS011;29282;45.656;11.302;2023-06-05T09:09:21;3.17;;;1.70;;
33162;SDS011;29282;45.656;11.302;2023-06-05T09:11:47;1.65;;;1.55;;
33162;SDS011;29282;45.656;11.302;2023-06-05T09:14:30;1.50;;;1.40;;
33162;SDS011;29282;45.656;11.302;2023-06-05T09:16:56;1.73;;;1.60;;
33162;SDS011;29282;45.656;11.302;2023-06-05T09:19:22;1.70;;;1.60;;
33162;SDS011;29282;45.656;11.302;2023-06-05T09:21:52;1.50;;;1.40;;
33162;SDS011;29282;45.656;11.302;2023-06-05T09:24:20;1.90;;;1.60;;
33162;SDS011;29282;45.656;11.302;2023-06-05T09:27:07;2.78;;;1.60;;
33162;SDS011;29282;45.656;11.302;2023-06-05T09:29:38;1.95;;;1.67;;
33162;SDS011;29282;45.656;11.302;2023-06-05T09:32:08;1.83;;;1.52;;
33162;SDS011;29282;45.656;11.302;2023-06-05T09:34:41;2.10;;;1.90;;
33162;SDS011;29282;45.656;11.302;2023-06-05T09:37:07;1.77;;;1.60;;
33162;SDS011;29282;45.656;11.302;2023-06-05T09:39:41;2.30;;;1.80;;
33162;SDS011;29282;45.656;11.302;2023-06-05T09:42:11;2.72;;;1.42;;
33162;SDS011;29282;45.656;11.302;2023-06-05T09:44:36;1.70;;;1.58;;
33162;SDS011;29282;45.656;11.302;2023-06-05T09:52:04;2.50;;;1.50;;
33162;SDS011;29282;45.656;11.302;2023-06-05T09:54:29;2.22;;;1.98;;
33162;SDS011;29282;45.656;11.302;2023-06-05T09:56:58;2.80;;;1.75;;
33162;SDS011;29282;45.656;11.302;2023-06-05T09:59:29;2.17;;;1.83;;
33162;SDS011;29282;45.656;11.302;2023-06-05T10:01:58;1.75;;;1.65;;
33162;SDS011;29282;45.656;11.302;2023-06-05T10:04:27;1.90;;;1.67;;
33162;SDS011;29282;45.656;11.302;2023-06-05T10:06:54;1.65;;;1.52;;
33162;SDS011;29282;45.656;11.302;2023-06-05T10:09:24;1.75;;;1.60;;
33162;SDS011;29282;45.656;11.302;2023-06-05T10:11:50;1.67;;;1.50;;
33162;SDS011;29282;45.656;11.302;2023-06-05T10:14:17;1.55;;;1.45;;
33162;SDS011;29282;45.656;11.302;2023-06-05T10:16:44;2.42;;;1.50;;
33162;SDS011;29282;45.656;11.302;2023-06-05T10:19:14;2.05;;;1.65;;
33162;SDS011;29282;45.656;11.302;2023-06-05T10:21:41;2.65;;;1.50;;
33162;SDS011;29282;45.656;11.302;2023-06-05T10:24:14;1.50;;;1.40;;
33162;SDS011;29282;45.656;11.302;2023-06-05T10:32:16;2.08;;;1.63;;
33162;SDS011;29282;45.656;11.302;2023-06-05T10:35:00;1.80;;;1.65;;
33162;SDS011;29282;45.656;11.302;2023-06-05T10:37:35;2.10;;;1.58;;
33162;SDS011;29282;45.656;11.302;2023-06-05T10:40:06;1.65;;;1.55;;
33162;SDS011;29282;45.656;11.302;2023-06-05T10:42:34;1.65;;;1.55;;
33162;SDS011;29282;45.656;11.302;2023-06-05T10:45:01;1.73;;;1.50;;
33162;SDS011;29282;45.656;11.302;2023-06-05T10:52:45;2.67;;;1.65;;
33162;SDS011;29282;45.656;11.302;2023-06-05T10:55:12;1.73;;;1.63;;
33162;SDS011;29282;45.656;11.302;2023-06-05T11:00:28;1.88;;;1.67;;
33162;SDS011;29282;45.656;11.302;2023-06-05T11:02:54;1.58;;;1.48;;
33162;SDS011;29282;45.656;11.302;2023-06-05T11:05:20;2.28;;;1.65;;
33162;SDS011;29282;45.656;11.302;2023-06-05T11:07:46;3.17;;;1.58;;
33162;SDS011;29282;45.656;11.302;2023-06-05T11:10:18;1.70;;;1.45;;
33162;SDS011;29282;45.656;11.302;2023-06-05T11:15:16;2.17;;;1.55;;
33162;SDS011;29282;45.656;11.302;2023-06-05T11:17:47;1.52;;;1.42;;
33162;SDS011;29282;45.656;11.302;2023-06-05T11:27:52;2.55;;;1.50;;
33162;SDS011;29282;45.656;11.302;2023-06-05T11:30:19;3.78;;;1.60;;
33162;SDS011;29282;45.656;11.302;2023-06-05T11:32:46;1.60;;;1.50;;
33162;SDS011;29282;45.656;11.302;2023-06-05T11:35:12;1.75;;;1.65;;
33162;SDS011;29282;45.656;11.302;2023-06-05T11:37:39;1.92;;;1.50;;
33162;SDS011;29282;45.656;11.302;2023-06-05T11:40:05;2.13;;;1.70;;
33162;SDS011;29282;45.656;11.302;2023-06-05T11:42:35;2.83;;;1.50;;
33162;SDS011;29282;45.656;11.302;2023-06-05T11:45:01;2.80;;;1.77;;
33162;SDS011;29282;45.656;11.302;2023-06-05T11:47:27;1.58;;;1.48;;
33162;SDS011;29282;45.656;11.302;2023-06-05T11:50:16;1.83;;;1.60;;
33162;SDS011;29282;45.656;11.302;2023-06-05T11:52:41;2.10;;;1.63;;
33162;SDS011;29282;45.656;11.302;2023-06-05T11:55:13;2.08;;;1.67;;
33162;SDS011;29282;45.656;11.302;2023-06-05T11:57:54;2.15;;;1.88;;
33162;SDS011;29282;45.656;11.302;2023-06-05T12:00:23;2.83;;;1.90;;
33162;SDS011;29282;45.656;11.302;2023-06-05T12:02:51;2.45;;;2.20;;
33162;SDS011;29282;45.656;11.302;2023-06-05T12:05:16;3.10;;;1.60;;
33162;SDS011;29282;45.656;11.302;2023-06-05T12:07:42;2.92;;;1.70;;
33162;SDS011;29282;45.656;11.302;2023-06-05T12:10:08;3.03;;;1.92;;
33162;SDS011;29282;45.656;11.302;2023-06-05T12:12:56;2.00;;;1.85;;
33162;SDS011;29282;45.656;11.302;2023-06-05T12:15:21;2.25;;;1.98;;
33162;SDS011;29282;45.656;11.302;2023-06-05T12:17:53;2.65;;;1.85;;
33162;SDS011;29282;45.656;11.302;2023-06-05T12:20:21;2.45;;;2.15;;
33162;SDS011;29282;45.656;11.302;2023-06-05T12:22:48;3.35;;;2.47;;
33162;SDS011;29282;45.656;11.302;2023-06-05T12:25:17;2.15;;;1.95;;
33162;SDS011;29282;45.656;11.302;2023-06-05T12:27:47;3.15;;;2.00;;
33162;SDS011;29282;45.656;11.302;2023-06-05T12:30:14;2.80;;;2.03;;
33162;SDS011;29282;45.656;11.302;2023-06-05T12:32:41;3.88;;;2.22;;
33162;SDS011;29282;45.656;11.302;2023-06-05T12:35:20;16.92;;;2.20;;
33162;SDS011;29282;45.656;11.302;2023-06-05T12:37:47;5.63;;;1.92;;
33162;SDS011;29282;45.656;11.302;2023-06-05T12:40:14;9.50;;;2.35;;
33162;SDS011;29282;45.656;11.302;2023-06-05T12:42:42;13.07;;;3.03;;
33162;SDS011;29282;45.656;11.302;2023-06-05T12:45:08;8.23;;;2.85;;
33162;SDS011;29282;45.656;11.302;2023-06-05T12:47:35;7.43;;;2.40;;
33162;SDS011;29282;45.656;11.302;2023-06-05T12:50:05;5.32;;;2.45;;
33162;SDS011;29282;45.656;11.302;2023-06-05T12:52:37;4.65;;;2.08;;
33162;SDS011;29282;45.656;11.302;2023-06-05T12:55:06;2.45;;;2.17;;
33162;SDS011;29282;45.656;11.302;2023-06-05T12:57:33;4.82;;;2.50;;
33162;SDS011;29282;45.656;11.302;2023-06-05T12:59:59;3.85;;;2.40;;
33162;SDS011;29282;45.656;11.302;2023-06-05T13:02:35;4.82;;;2.50;;
33162;SDS011;29282;45.656;11.302;2023-06-05T13:05:01;3.92;;;2.15;;
33162;SDS011;29282;45.656;11.302;2023-06-05T13:07:28;3.40;;;2.30;;
33162;SDS011;29282;45.656;11.302;2023-06-05T13:09:54;3.30;;;2.40;;
33162;SDS011;29282;45.656;11.302;2023-06-05T13:12:20;3.55;;;2.78;;
33162;SDS011;29282;45.656;11.302;2023-06-05T13:14:46;2.58;;;2.38;;
33162;SDS011;29282;45.656;11.302;2023-06-05T13:17:11;3.60;;;2.38;;
33162;SDS011;29282;45.656;11.302;2023-06-05T13:19:37;3.35;;;2.50;;
33162;SDS011;29282;45.656;11.302;2023-06-05T13:22:03;2.38;;;2.10;;
33162;SDS011;29282;45.656;11.302;2023-06-05T13:24:29;4.07;;;2.38;;
33162;SDS011;29282;45.656;11.302;2023-06-05T13:26:54;3.35;;;2.45;;
33162;SDS011;29282;45.656;11.302;2023-06-05T13:29:20;3.30;;;2.20;;
33162;SDS011;29282;45.656;11.302;2023-06-05T13:31:45;4.10;;;2.22;;
33162;SDS011;29282;45.656;11.302;2023-06-05T13:34:11;3.10;;;2.53;;
33162;SDS011;29282;45.656;11.302;2023-06-05T13:36:37;2.78;;;2.17;;
33162;SDS011;29282;45.656;11.302;2023-06-05T13:39:03;3.75;;;2.70;;
33162;SDS011;29282;45.656;11.302;2023-06-05T13:41:29;4.32;;;2.53;;
33162;SDS011;29282;45.656;11.302;2023-06-05T13:43:54;2.60;;;2.30;;
33162;SDS011;29282;45.656;11.302;2023-06-05T13:46:22;3.03;;;2.47;;
33162;SDS011;29282;45.656;11.302;2023-06-05T13:48:48;2.35;;;2.10;;
33162;SDS011;29282;45.656;11.302;2023-06-05T13:51:14;4.57;;;2.70;;
33162;SDS011;29282;45.656;11.302;2023-06-05T13:53:40;3.13;;;2.80;;
33162;SDS011;29282;45.656;11.302;2023-06-05T13:56:08;2.63;;;2.42;;
33162;SDS011;29282;45.656;11.302;2023-06-05T13:58:34;5.50;;;2.60;;
33162;SDS011;29282;45.656;11.302;2023-06-05T14:00:59;4.38;;;2.30;;
33162;SDS011;29282;45.656;11.302;2023-06-05T14:03:25;2.33;;;2.13;;
33162;SDS011;29282;45.656;11.302;2023-06-05T14:05:51;3.72;;;2.70;;
33162;SDS011;29282;45.656;11.302;2023-06-05T14:08:17;2.58;;;2.28;;
33162;SDS011;29282;45.656;11.302;2023-06-05T14:10:43;4.35;;;2.40;;
33162;SDS011;29282;45.656;11.302;2023-06-05T14:13:09;2.60;;;2.35;;
33162;SDS011;29282;45.656;11.302;2023-06-05T14:15:35;2.40;;;2.20;;
33162;SDS011;29282;45.656;11.302;2023-06-05T14:18:02;3.33;;;2.10;;
33162;SDS011;29282;45.656;11.302;2023-06-05T14:20:29;6.75;;;2.88;;
33162;SDS011;29282;45.656;11.302;2023-06-05T14:22:58;3.47;;;2.30;;
33162;SDS011;29282;45.656;11.302;2023-06-05T14:25:24;7.13;;;2.28;;
33162;SDS011;29282;45.656;11.302;2023-06-05T14:27:53;5.88;;;2.75;;
33162;SDS011;29282;45.656;11.302;2023-06-05T14:30:20;3.83;;;2.28;;
33162;SDS011;29282;45.656;11.302;2023-06-05T14:32:46;2.30;;;2.10;;
33162;SDS011;29282;45.656;11.302;2023-06-05T14:35:12;3.80;;;2.22;;
33162;SDS011;29282;45.656;11.302;2023-06-05T14:37:37;2.42;;;2.00;;
33162;SDS011;29282;45.656;11.302;2023-06-05T14:40:03;3.45;;;2.47;;
33162;SDS011;29282;45.656;11.302;2023-06-05T14:42:29;6.97;;;2.15;;
33162;SDS011;29282;45.656;11.302;2023-06-05T14:44:55;2.53;;;2.30;;
33162;SDS011;29282;45.656;11.302;2023-06-05T14:47:20;2.95;;;2.25;;
33162;SDS011;29282;45.656;11.302;2023-06-05T14:49:47;2.80;;;2.35;;
33162;SDS011;29282;45.656;11.302;2023-06-05T14:52:13;2.95;;;2.10;;
33162;SDS011;29282;45.656;11.302;2023-06-05T14:54:38;3.42;;;2.00;;
33162;SDS011;29282;45.656;11.302;2023-06-05T14:57:04;2.38;;;2.17;;
33162;SDS011;29282;45.656;11.302;2023-06-05T14:59:30;2.63;;;2.22;;
33162;SDS011;29282;45.656;11.302;2023-06-05T15:01:56;2.63;;;1.90;;
33162;SDS011;29282;45.656;11.302;2023-06-05T15:04:21;2.58;;;2.38;;
33162;SDS011;29282;45.656;11.302;2023-06-05T15:06:47;2.30;;;2.05;;
33162;SDS011;29282;45.656;11.302;2023-06-05T15:09:16;3.10;;;2.40;;
33162;SDS011;29282;45.656;11.302;2023-06-05T15:11:42;2.45;;;2.20;;